createdAt,value
2023-02-28T00:00:40.380Z,6.38
2023-02-28T00:05:42.563Z,5.85
2023-02-28T00:10:44.327Z,7.30
2023-02-28T00:15:46.955Z,8.27
2023-02-28T00:20:48.612Z,10.35
2023-02-28T00:25:51.327Z,6.50
2023-02-28T00:30:53.119Z,6.20
2023-02-28T00:36:09.750Z,7.82
2023-02-28T00:41:11.678Z,9.35
2023-02-28T00:46:13.426Z,6.95
2023-02-28T00:51:15.140Z,6.95
2023-02-28T00:56:17.041Z,5.75
2023-02-28T01:01:18.773Z,6.38
2023-02-28T01:06:20.435Z,5.43
2023-02-28T01:11:22.106Z,6.60
2023-02-28T01:16:24.332Z,7.95
2023-02-28T01:21:26.228Z,6.70
2023-02-28T01:26:28.109Z,9.25
2023-02-28T01:31:30.150Z,7.45
2023-02-28T01:36:32.181Z,6.95
2023-02-28T01:41:35.491Z,6.63
2023-02-28T01:46:37.238Z,7.65
2023-02-28T01:51:54.156Z,7.47
2023-02-28T01:57:07.357Z,6.82
2023-02-28T02:02:09.194Z,8.25
2023-02-28T02:07:12.150Z,7.30
2023-02-28T02:12:47.845Z,7.60
2023-02-28T02:17:53.409Z,7.28
2023-02-28T02:23:32.324Z,6.95
2023-02-28T02:29:12.694Z,8.00
2023-02-28T02:34:28.644Z,7.25
2023-02-28T02:39:41.792Z,7.40
2023-02-28T02:44:55.032Z,7.03
2023-02-28T02:50:01.406Z,6.75
2023-02-28T02:55:04.756Z,6.32
2023-02-28T03:00:10.623Z,6.47
2023-02-28T03:05:36.892Z,8.02
2023-02-28T03:10:52.318Z,5.40
2023-02-28T03:16:13.708Z,7.95
2023-02-28T03:21:28.597Z,7.68
2023-02-28T03:26:30.876Z,8.40
2023-02-28T03:31:42.743Z,7.53
2023-02-28T03:36:49.633Z,7.88
2023-02-28T03:42:00.965Z,6.63
2023-02-28T03:47:14.454Z,8.68
2023-02-28T03:52:19.576Z,6.88
2023-02-28T03:57:33.344Z,5.72
2023-02-28T04:02:35.188Z,6.22
2023-02-28T04:07:36.905Z,7.40
2023-02-28T04:12:38.693Z,7.43
2023-02-28T04:17:40.390Z,6.85
2023-02-28T04:22:42.027Z,8.50
2023-02-28T04:27:45.605Z,7.30
2023-02-28T04:32:47.738Z,6.53
2023-02-28T04:37:49.417Z,10.95
2023-02-28T04:42:51.112Z,8.13
2023-02-28T04:47:52.867Z,11.55
2023-02-28T04:52:55.279Z,8.02
2023-02-28T04:57:56.932Z,10.70
2023-02-28T05:02:58.594Z,10.20
2023-02-28T05:08:02.284Z,8.98
2023-02-28T05:13:06.165Z,10.82
2023-02-28T05:18:09.584Z,8.93
2023-02-28T05:23:14.467Z,12.07
2023-02-28T05:28:18.186Z,7.85
2023-02-28T05:33:21.989Z,8.73
2023-02-28T05:38:28.002Z,9.40
2023-02-28T05:43:29.693Z,8.10
2023-02-28T05:48:31.478Z,8.50
2023-02-28T05:53:34.160Z,8.20
2023-02-28T05:58:36.887Z,17.05
2023-02-28T06:03:39.668Z,7.90
2023-02-28T06:08:44.487Z,9.32
2023-02-28T06:13:46.140Z,9.88
2023-02-28T06:18:47.886Z,11.70
2023-02-28T06:23:49.539Z,8.95
2023-02-28T06:28:51.205Z,9.30
2023-02-28T06:33:52.914Z,8.80
2023-02-28T06:38:56.601Z,10.82
2023-02-28T06:43:58.649Z,8.63
2023-02-28T06:49:00.398Z,16.63
2023-02-28T06:54:02.342Z,9.23
2023-02-28T06:59:04.674Z,13.48
2023-02-28T07:04:07.644Z,8.35
2023-02-28T07:09:09.586Z,8.63
2023-02-28T07:14:11.392Z,11.75
2023-02-28T07:19:13.038Z,8.88
2023-02-28T07:24:16.835Z,9.23
2023-02-28T07:29:18.498Z,9.23
2023-02-28T07:34:21.584Z,8.98
2023-02-28T07:39:23.861Z,15.13
2023-02-28T07:44:25.499Z,6.82
2023-02-28T07:49:27.260Z,8.65
2023-02-28T07:54:28.960Z,8.93
2023-02-28T07:59:32.262Z,7.93
2023-02-28T08:04:34.126Z,10.43
2023-02-28T08:09:35.935Z,8.13
2023-02-28T08:14:37.942Z,9.80
2023-02-28T08:19:40.673Z,9.02
2023-02-28T08:24:44.378Z,5.90
2023-02-28T08:29:48.333Z,8.85
2023-02-28T08:34:50.315Z,6.30
2023-02-28T08:39:56.551Z,6.07
2023-02-28T08:44:58.367Z,6.88
2023-02-28T08:50:03.154Z,7.50
2023-02-28T08:55:06.188Z,5.78
2023-02-28T09:00:09.037Z,6.20
2023-02-28T09:05:10.825Z,5.40
2023-02-28T09:10:12.896Z,6.22
2023-02-28T09:15:15.777Z,7.85
2023-02-28T09:20:17.841Z,10.00
2023-02-28T09:25:20.588Z,6.80
2023-02-28T09:30:23.027Z,7.20
2023-02-28T09:35:28.676Z,5.35
2023-02-28T09:40:31.755Z,5.60
2023-02-28T09:45:37.873Z,6.93
2023-02-28T09:50:57.030Z,5.85
2023-02-28T09:56:30.546Z,5.93
2023-02-28T10:01:47.038Z,5.72
2023-02-28T10:06:53.208Z,4.68
2023-02-28T10:12:03.469Z,5.57
2023-02-28T10:17:23.235Z,5.17
2023-02-28T10:22:42.723Z,5.25
2023-02-28T10:27:46.041Z,6.10
2023-02-28T10:32:56.150Z,5.32
2023-02-28T10:38:02.062Z,5.15
2023-02-28T10:43:27.873Z,7.78
2023-02-28T10:48:39.132Z,5.78
2023-02-28T10:53:59.753Z,5.40
2023-02-28T10:59:04.075Z,6.95
2023-02-28T11:04:20.851Z,4.93
2023-02-28T11:09:49.492Z,6.25
2023-02-28T11:14:54.511Z,8.55
2023-02-28T11:20:09.880Z,4.88
2023-02-28T11:25:36.728Z,6.32
2023-02-28T11:30:41.635Z,4.28
2023-02-28T11:35:44.095Z,6.43
2023-02-28T11:41:08.132Z,5.90
2023-02-28T11:46:18.610Z,5.80
2023-02-28T11:51:34.916Z,6.22
2023-02-28T11:56:47.645Z,5.05
2023-02-28T12:02:01.967Z,4.55
2023-02-28T12:07:41.271Z,7.25
2023-02-28T12:12:59.280Z,5.65
2023-02-28T12:18:25.222Z,4.93
2023-02-28T12:23:54.323Z,5.72
2023-02-28T12:29:11.677Z,5.15
2023-02-28T12:34:21.688Z,7.90
2023-02-28T12:39:41.715Z,5.15
2023-02-28T12:44:55.718Z,5.85
2023-02-28T12:50:12.592Z,5.20
2023-02-28T12:55:47.417Z,8.43
2023-02-28T13:01:30.119Z,6.90
2023-02-28T13:06:42.524Z,7.13
2023-02-28T13:11:52.856Z,7.47
2023-02-28T13:16:54.514Z,8.17
2023-02-28T13:21:57.507Z,6.78
2023-02-28T13:27:02.946Z,6.70
2023-02-28T13:32:11.674Z,6.18
2023-02-28T13:37:22.385Z,7.53
2023-02-28T13:42:38.413Z,6.82
2023-02-28T13:47:49.017Z,7.53
2023-02-28T13:53:15.407Z,6.00
2023-02-28T13:58:36.734Z,7.20
2023-02-28T14:03:56.805Z,8.02
2023-02-28T14:09:03.048Z,7.72
2023-02-28T14:14:09.460Z,7.07
2023-02-28T14:19:11.850Z,6.53
2023-02-28T14:24:48.069Z,7.53
2023-02-28T14:30:08.017Z,13.45
2023-02-28T14:35:41.978Z,9.73
2023-02-28T14:40:46.024Z,5.45
2023-02-28T14:45:57.443Z,9.15
2023-02-28T14:51:02.696Z,6.30
2023-02-28T14:56:07.208Z,8.95
2023-02-28T15:01:12.643Z,5.72
2023-02-28T15:06:19.519Z,7.90
2023-02-28T15:11:23.425Z,5.55
2023-02-28T15:16:41.006Z,5.78
2023-02-28T15:21:46.235Z,6.60
2023-02-28T15:26:55.444Z,6.28
2023-02-28T15:32:08.576Z,8.20
2023-02-28T15:37:38.717Z,6.25
2023-02-28T15:42:41.527Z,6.82
2023-02-28T15:47:48.712Z,7.30
2023-02-28T15:52:50.421Z,7.03
2023-02-28T15:57:55.221Z,7.35
2023-02-28T16:02:58.119Z,6.75
2023-02-28T16:08:07.987Z,5.50
2023-02-28T16:13:16.260Z,7.28
2023-02-28T16:18:21.246Z,7.82
2023-02-28T16:23:24.744Z,8.88
2023-02-28T16:28:33.419Z,8.65
2023-02-28T16:33:35.321Z,8.25
2023-02-28T16:38:39.042Z,8.30
2023-02-28T16:43:41.536Z,8.80
2023-02-28T16:48:45.442Z,8.68
2023-02-28T16:53:47.975Z,8.70
2023-02-28T16:58:51.324Z,11.07
2023-02-28T17:03:54.319Z,9.75
2023-02-28T17:09:00.450Z,8.73
2023-02-28T17:14:03.302Z,9.63
2023-02-28T17:19:07.241Z,7.65
2023-02-28T17:24:21.956Z,9.73
2023-02-28T17:29:27.281Z,8.63
2023-02-28T17:34:29.034Z,7.65
2023-02-28T17:39:32.425Z,10.07
2023-02-28T17:44:34.422Z,7.45
2023-02-28T17:49:36.185Z,9.43
2023-02-28T17:54:39.206Z,14.15
2023-02-28T17:59:41.952Z,14.05
2023-02-28T18:04:43.705Z,9.15
2023-02-28T18:09:45.526Z,11.98
2023-02-28T18:14:49.054Z,12.40
2023-02-28T18:19:52.553Z,16.42
2023-02-28T18:24:55.334Z,17.48
2023-02-28T18:29:57.249Z,13.02
2023-02-28T18:34:59.004Z,13.23
2023-02-28T18:40:00.800Z,15.45
2023-02-28T18:45:03.027Z,13.23
2023-02-28T18:50:06.682Z,14.38
2023-02-28T18:55:09.208Z,15.55
2023-02-28T19:00:13.135Z,15.25
2023-02-28T19:05:14.910Z,14.85
2023-02-28T19:10:18.932Z,14.55
2023-02-28T19:15:20.736Z,14.15
2023-02-28T19:20:22.483Z,16.85
2023-02-28T19:25:24.838Z,14.27
2023-02-28T19:30:26.543Z,18.33
2023-02-28T19:35:29.372Z,18.52
2023-02-28T19:40:33.146Z,18.23
2023-02-28T19:45:36.633Z,15.32
2023-02-28T19:50:38.392Z,17.50
2023-02-28T19:55:40.043Z,16.10
2023-02-28T20:00:41.895Z,17.70
2023-02-28T20:05:43.765Z,17.20
2023-02-28T20:10:45.498Z,20.73
2023-02-28T20:15:47.205Z,17.23
2023-02-28T20:20:48.950Z,17.75
2023-02-28T20:25:51.610Z,18.48
2023-02-28T20:30:53.429Z,16.52
2023-02-28T20:35:59.741Z,16.02
2023-02-28T20:41:02.541Z,17.83
2023-02-28T20:46:04.422Z,17.52
2023-02-28T20:51:06.898Z,24.00
2023-02-28T20:56:13.818Z,15.88
2023-02-28T21:01:18.062Z,19.30
2023-02-28T21:06:22.452Z,31.90
2023-02-28T21:11:29.472Z,31.27
2023-02-28T21:16:32.318Z,22.15
2023-02-28T21:21:39.971Z,21.90
2023-02-28T21:26:45.931Z,26.65
2023-02-28T21:31:52.920Z,28.33
2023-02-28T21:36:54.977Z,18.30
2023-02-28T21:42:03.636Z,19.08
2023-02-28T21:47:05.847Z,20.73
2023-02-28T21:52:07.718Z,22.17
2023-02-28T21:57:09.532Z,31.45
2023-02-28T22:02:12.856Z,37.22
2023-02-28T22:07:14.800Z,23.88
2023-02-28T22:12:16.623Z,18.30
2023-02-28T22:17:18.310Z,19.92
2023-02-28T22:22:19.960Z,18.35
2023-02-28T22:27:21.633Z,20.05
2023-02-28T22:32:23.474Z,17.83
2023-02-28T22:37:25.184Z,17.77
2023-02-28T22:42:26.919Z,18.42
2023-02-28T22:47:28.747Z,18.38
2023-02-28T22:52:42.704Z,29.52
2023-02-28T22:57:44.354Z,32.92
2023-02-28T23:02:47.342Z,24.98
2023-02-28T23:07:49.097Z,21.33
2023-02-28T23:12:50.797Z,25.17
2023-02-28T23:17:52.508Z,17.05
2023-02-28T23:22:54.262Z,24.75
2023-02-28T23:27:56.095Z,23.65
2023-02-28T23:32:57.760Z,22.33
2023-02-28T23:37:59.854Z,26.05
2023-02-28T23:43:01.800Z,24.08
2023-02-28T23:48:03.934Z,25.38
2023-02-28T23:53:05.700Z,21.98
2023-02-28T23:58:07.366Z,23.42
